Time;durP1;ratioP1;P1;durP2;ratioP2;P2;SDS_P1;SDS_P2;PMS_P1;PMS_P2;Temp;Humidity;BMP_temperature;BMP_pressure;BME280_temperature;BME280_humidity;BME280_pressure;Samples;Min_cycle;Max_cycle;Signal;HPM_P1;HPM_P2
2021/12/27 00:00:31;;;;;;;;;;;;;;;2.07;100.00;100270.00;5006604;28;20365;-70
2021/12/27 00:02:59;;;;;;;;;;;;;;;2.06;100.00;100253.06;5009255;28;20012;-71
2021/12/27 00:05:24;;;;;;;;;;;;;;;2.08;100.00;100260.75;5008199;28;19965;-71
2021/12/27 00:07:51;;;;;;;;;;;;;;;2.10;100.00;100254.06;5011289;28;21555;-71
2021/12/27 00:10:17;;;;;;;;;;;;;;;2.09;100.00;100252.34;5008399;28;20011;-71
2021/12/27 00:12:43;;;;;;;;;;;;;;;2.13;100.00;100260.19;5009898;28;20009;-70
2021/12/27 00:15:08;;;;;;;;;;;;;;;2.10;100.00;100251.53;5006858;28;19953;-71
2021/12/27 00:17:34;;;;;;;;;;;;;;;2.11;100.00;100256.69;5008523;28;19921;-71
2021/12/27 00:19:59;;;;;;;;;;;;;;;2.10;100.00;100254.06;5009221;28;19917;-70
2021/12/27 00:22:24;;;;;;;;;;;;;;;2.10;100.00;100254.06;5007122;28;21423;-71
2021/12/27 00:24:50;;;;;;;;;;;;;;;2.11;100.00;100250.75;5004800;28;19929;-71
2021/12/27 00:27:16;;;;;;;;;;;;;;;2.12;100.00;100250.84;5003485;28;19922;-71
2021/12/27 00:29:41;;;;;;;;;;;;;;;2.14;100.00;100245.84;5008781;28;19918;-72
2021/12/27 00:32:06;;;;;;;;;;;;;;;2.12;100.00;100247.41;5006396;28;19921;-71
2021/12/27 00:34:32;;;;;;;;;;;;;;;2.14;100.00;100246.72;5007982;28;19949;-73
2021/12/27 00:36:57;;;;;;;;;;;;;;;2.13;100.00;100244.97;5007453;28;20732;-71
2021/12/27 00:39:22;;;;;;;;;;;;;;;2.17;100.00;100245.13;5006816;28;20008;-72
2021/12/27 00:41:47;;;;;;;;;;;;;;;2.18;100.00;100236.72;5008996;28;19964;-73
2021/12/27 00:44:13;;;;;;;;;;;;;;;2.18;100.00;100234.16;5009391;28;19944;-72
2021/12/27 00:46:38;;;;;;;;;;;;;;;2.18;100.00;100227.44;5008627;28;19956;-71
2021/12/27 00:49:03;;;;;;;;;;;;;;;2.18;100.00;100226.56;5005624;28;21059;-71
2021/12/27 00:51:29;;;;;;;;;;;;;;;2.20;100.00;100230.06;5005247;28;19976;-71
2021/12/27 00:53:54;;;;;;;;;;;;;;;2.20;100.00;100219.94;5007121;28;20307;-72
2021/12/27 00:56:19;;;;;;;;;;;;;;;2.21;100.00;100209.84;5006074;28;19922;-73
2021/12/27 00:58:44;;;;;;;;;;;;;;;2.24;100.00;100206.59;4998032;28;19921;-71
2021/12/27 01:01:10;;;;;;;;;;;;;;;2.23;100.00;100205.72;5003910;28;19988;-72
2021/12/27 01:03:35;;;;;;;;;;;;;;;2.26;100.00;100205.00;5007172;28;19921;-72
2021/12/27 01:06:00;;;;;;;;;;;;;;;2.27;100.00;100206.75;5005184;28;19926;-73
2021/12/27 01:08:25;;;;;;;;;;;;;;;2.27;100.00;100197.47;5007404;28;20363;-72
2021/12/27 01:13:41;;;;;;;;;;;;;;;2.29;100.00;100198.41;5006519;28;19928;-73
2021/12/27 01:18:34;;;;;;;;;;;;;;;2.34;100.00;100204.59;5007988;28;19964;-73
2021/12/27 01:20:59;;;;;;;;;;;;;;;2.34;100.00;100204.59;5007463;28;19963;-74
2021/12/27 01:23:24;;;;;;;;;;;;;;;2.35;100.00;100210.53;5006983;28;19925;-73
2021/12/27 01:25:49;;;;;;;;;;;;;;;2.36;100.00;100207.19;5007274;28;19936;-72
2021/12/27 01:28:16;;;;;;;;;;;;;;;2.38;100.00;100205.63;5007854;28;19997;-73
2021/12/27 01:30:47;;;;;;;;;;;;;;;2.37;100.00;100204.75;5007213;28;19921;-73
2021/12/27 01:33:13;;;;;;;;;;;;;;;2.39;100.00;100197.22;5001818;28;19917;-73
2021/12/27 01:35:38;;;;;;;;;;;;;;;2.42;100.00;100192.28;5005492;28;19932;-71
2021/12/27 01:38:03;;;;;;;;;;;;;;;2.41;100.00;100186.34;5008244;28;20024;-72
2021/12/27 01:40:29;;;;;;;;;;;;;;;2.42;100.00;100195.69;5005852;28;19944;-72
2021/12/27 01:43:09;;;;;;;;;;;;;;;2.43;100.00;100191.50;5008835;28;19925;-72
2021/12/27 01:45:38;;;;;;;;;;;;;;;2.46;100.00;100185.69;5007466;28;19933;-72
2021/12/27 01:48:03;;;;;;;;;;;;;;;2.46;100.00;100178.09;5005927;28;19922;-72
2021/12/27 01:50:29;;;;;;;;;;;;;;;2.47;100.00;100184.91;5006530;28;19941;-73
2021/12/27 01:52:54;;;;;;;;;;;;;;;2.48;100.00;100189.19;5006920;28;19971;-74
2021/12/27 01:55:20;;;;;;;;;;;;;;;2.48;100.00;100187.50;5005345;28;20295;-72
2021/12/27 01:57:45;;;;;;;;;;;;;;;2.48;100.00;100179.03;5005574;28;19925;-74
2021/12/27 02:00:11;;;;;;;;;;;;;;;2.49;100.00;100189.28;5006586;28;19922;-72
2021/12/27 02:02:36;;;;;;;;;;;;;;;2.49;100.00;100178.22;5007420;28;19921;-72
2021/12/27 02:05:02;;;;;;;;;;;;;;;2.50;100.00;100180.88;5008327;28;20384;-73
2021/12/27 02:07:27;;;;;;;;;;;;;;;2.52;100.00;100186.88;4998298;28;19921;-71
2021/12/27 02:10:25;;;;;;;;;;;;;;;2.55;100.00;100178.53;5006983;28;20019;-69
2021/12/27 02:12:44;;;;;;;;;;;;;;;2.53;100.00;100180.13;5006828;28;19933;-72
2021/12/27 02:15:10;;;;;;;;;;;;;;;2.52;100.00;100176.72;5008336;28;19992;-73
2021/12/27 02:17:39;;;;;;;;;;;;;;;2.56;100.00;100168.47;5005301;28;20004;-71
2021/12/27 02:20:09;;;;;;;;;;;;;;;2.57;100.00;100167.66;5007428;28;19922;-71
2021/12/27 02:22:36;;;;;;;;;;;;;;;2.59;100.00;100175.34;5006770;28;19918;-74
2021/12/27 02:25:05;;;;;;;;;;;;;;;2.59;100.00;100170.28;5007783;28;19968;-72
2021/12/27 02:27:31;;;;;;;;;;;;;;;2.61;100.00;100174.66;5005041;28;21262;-72
2021/12/27 02:29:56;;;;;;;;;;;;;;;2.62;100.00;100172.97;5007313;28;19972;-73
2021/12/27 02:32:21;;;;;;;;;;;;;;;2.62;100.00;100163.69;5006762;28;19921;-72
2021/12/27 02:34:47;;;;;;;;;;;;;;;2.64;100.00;100169.69;5006742;28;19940;-72
2021/12/27 02:37:12;;;;;;;;;;;;;;;2.62;100.00;100161.16;5004361;28;19991;-73
2021/12/27 02:39:37;;;;;;;;;;;;;;;2.63;100.00;100170.50;5002643;28;19925;-73
2021/12/27 02:42:03;;;;;;;;;;;;;;;2.64;100.00;100163.75;5002677;28;19921;-72
2021/12/27 02:44:28;;;;;;;;;;;;;;;2.65;100.00;100170.56;5006374;28;19925;-71
2021/12/27 02:46:53;;;;;;;;;;;;;;;2.66;100.00;100165.56;5007500;28;19936;-72
2021/12/27 02:49:19;;;;;;;;;;;;;;;2.67;100.00;100169.88;5001322;28;19957;-72
2021/12/27 02:51:44;;;;;;;;;;;;;;;2.68;100.00;100166.53;5003000;28;19928;-74
2021/12/27 02:54:09;;;;;;;;;;;;;;;2.70;100.00;100158.97;5005753;28;19937;-71
2021/12/27 02:56:35;;;;;;;;;;;;;;;2.71;100.00;100164.91;5003856;28;20019;-72
2021/12/27 02:59:00;;;;;;;;;;;;;;;2.72;100.00;100159.03;5007301;28;19988;-71
2021/12/27 03:01:26;;;;;;;;;;;;;;;2.72;100.00;100154.84;5005783;28;19921;-72
2021/12/27 03:03:52;;;;;;;;;;;;;;;2.76;100.00;100153.31;5002202;28;19937;-74
2021/12/27 03:06:18;;;;;;;;;;;;;;;2.76;100.00;100148.25;5006248;28;20304;-72
2021/12/27 03:08:44;;;;;;;;;;;;;;;2.75;100.00;100142.31;5005227;28;20257;-72
2021/12/27 03:11:12;;;;;;;;;;;;;;;2.77;100.00;100143.25;5005905;28;19922;-73
2021/12/27 03:13:39;;;;;;;;;;;;;;;2.76;100.00;100145.72;5003734;28;19969;-74
2021/12/27 03:16:09;;;;;;;;;;;;;;;2.79;100.00;100148.38;5003154;28;19953;-74
2021/12/27 03:18:35;;;;;;;;;;;;;;;2.82;100.00;100140.91;5006778;28;20592;-72
2021/12/27 03:21:01;;;;;;;;;;;;;;;2.82;100.00;100151.06;5001266;28;19922;-73
2021/12/27 03:23:27;;;;;;;;;;;;;;;2.80;100.00;100140.00;5004359;28;19929;-72
2021/12/27 03:25:53;;;;;;;;;;;;;;;2.82;100.00;100133.31;5001349;28;20059;-72
2021/12/27 03:28:18;;;;;;;;;;;;;;;2.84;100.00;100141.84;5005609;28;19928;-72
2021/12/27 03:30:43;;;;;;;;;;;;;;;2.86;100.00;100140.28;5004503;28;20016;-72
2021/12/27 03:33:09;;;;;;;;;;;;;;;2.89;100.00;100140.41;5005514;28;19925;-72
2021/12/27 03:35:36;;;;;;;;;;;;;;;2.92;100.00;100131.28;5004501;28;19921;-72
2021/12/27 03:38:04;;;;;;;;;;;;;;;2.91;100.00;100128.63;5003746;28;19918;-71
2021/12/27 03:40:29;;;;;;;;;;;;;;;2.92;100.00;100138.91;5007131;28;19979;-71
2021/12/27 03:42:55;;;;;;;;;;;;;;;2.92;100.00;100130.41;5003166;28;20392;-72
2021/12/27 03:45:28;;;;;;;;;;;;;;;2.94;100.00;100129.66;5005389;28;19917;-71
2021/12/27 03:47:54;;;;;;;;;;;;;;;2.94;100.00;100124.59;4999912;28;20017;-73
2021/12/27 03:50:19;;;;;;;;;;;;;;;2.96;100.00;100127.19;5001606;28;20020;-71
2021/12/27 03:52:45;;;;;;;;;;;;;;;2.97;100.00;100128.94;5006237;28;19929;-71
2021/12/27 03:55:11;;;;;;;;;;;;;;;2.98;100.00;100127.28;5003167;28;19933;-71
2021/12/27 03:57:38;;;;;;;;;;;;;;;2.99;100.00;100117.19;5001726;28;19944;-71
2021/12/27 04:02:40;;;;;;;;;;;;;;;3.01;100.00;100107.97;5006432;28;19917;-73
2021/12/27 04:05:08;;;;;;;;;;;;;;;3.02;100.00;100117.31;5003742;28;19974;-72
2021/12/27 04:07:35;;;;;;;;;;;;;;;3.03;100.00;100103.81;5002267;28;19921;-71
2021/12/27 04:10:00;;;;;;;;;;;;;;;3.05;100.00;100109.00;5004675;28;19921;-73
2021/12/27 04:12:25;;;;;;;;;;;;;;;3.06;100.00;100105.63;5004950;28;19932;-71
2021/12/27 04:14:50;;;;;;;;;;;;;;;3.07;100.00;100095.53;5003308;28;20419;-74
2021/12/27 04:17:15;;;;;;;;;;;;;;;3.09;100.00;100099.00;5004090;28;19969;-72
2021/12/27 04:19:41;;;;;;;;;;;;;;;3.11;100.00;100092.34;5000636;28;19963;-71
2021/12/27 04:22:06;;;;;;;;;;;;;;;3.11;100.00;100088.94;5001016;28;20327;-71
2021/12/27 04:24:31;;;;;;;;;;;;;;;3.14;100.00;100087.41;4985897;28;19926;-71
2021/12/27 04:26:57;;;;;;;;;;;;;;;3.13;100.00;100079.72;5002544;28;19972;-72
2021/12/27 04:29:22;;;;;;;;;;;;;;;3.16;100.00;100087.50;5006219;28;20403;-72
2021/12/27 04:31:47;;;;;;;;;;;;;;;3.14;100.00;100087.41;5007965;28;20295;-72
2021/12/27 04:34:12;;;;;;;;;;;;;;;3.16;100.00;100082.41;5006279;28;19933;-73
2021/12/27 04:36:38;;;;;;;;;;;;;;;3.16;100.00;100080.72;5007743;28;19921;-71
2021/12/27 04:39:03;;;;;;;;;;;;;;;3.17;100.00;100076.53;5006241;28;20376;-74
2021/12/27 04:41:29;;;;;;;;;;;;;;;3.20;100.00;100077.50;5007876;28;19921;-74
2021/12/27 04:43:54;;;;;;;;;;;;;;;3.19;100.00;100074.91;5005806;28;19928;-72
2021/12/27 04:46:19;;;;;;;;;;;;;;;3.23;100.00;100071.72;5006415;28;19983;-72
2021/12/27 04:48:44;;;;;;;;;;;;;;;3.25;100.00;100069.22;5008119;28;20007;-71
2021/12/27 04:51:10;;;;;;;;;;;;;;;3.23;100.00;100062.41;5005655;28;19924;-72
2021/12/27 04:53:36;;;;;;;;;;;;;;;3.23;100.00;100070.03;5010061;28;20387;-70
2021/12/27 04:56:01;;;;;;;;;;;;;;;3.25;100.00;100071.78;5003723;28;19930;-72
2021/12/27 04:58:27;;;;;;;;;;;;;;;3.25;100.00;100071.78;5008030;28;19936;-71
2021/12/27 05:00:53;;;;;;;;;;;;;;;3.23;100.00;100072.56;5009056;28;20056;-71
2021/12/27 05:03:18;;;;;;;;;;;;;;;3.23;100.00;100069.16;5009504;28;20099;-72
2021/12/27 05:05:46;;;;;;;;;;;;;;;3.25;100.00;100066.69;5007608;28;20288;-71
2021/12/27 05:08:13;;;;;;;;;;;;;;;3.25;100.00;100070.09;5005653;28;21343;-71
2021/12/27 05:10:38;;;;;;;;;;;;;;;3.27;100.00;100072.69;5005501;28;19976;-71
2021/12/27 05:13:04;;;;;;;;;;;;;;;3.26;100.00;100070.97;5009437;28;19924;-71
2021/12/27 05:15:29;;;;;;;;;;;;;;;3.27;100.00;100065.06;5009497;28;19933;-72
2021/12/27 05:17:55;;;;;;;;;;;;;;;3.27;100.00;100055.78;5008656;28;19918;-71
2021/12/27 05:20:20;;;;;;;;;;;;;;;3.29;100.00;100053.34;5009397;28;20395;-71
2021/12/27 05:22:46;;;;;;;;;;;;;;;3.31;100.00;100064.41;5007867;28;19918;-71
2021/12/27 05:25:12;;;;;;;;;;;;;;;3.30;100.00;100052.53;5009373;28;19917;-73
2021/12/27 05:27:39;;;;;;;;;;;;;;;3.34;100.00;100044.25;5005089;28;19925;-73
2021/12/27 05:30:06;;;;;;;;;;;;;;;3.37;100.00;100047.78;5003243;28;20447;-71
2021/12/27 05:32:32;;;;;;;;;;;;;;;3.38;100.00;100053.72;5006745;28;20033;-71
2021/12/27 05:34:57;;;;;;;;;;;;;;;3.41;100.00;100048.78;5004460;28;20008;-71
2021/12/27 05:37:23;;;;;;;;;;;;;;;3.42;100.00;100042.91;5008982;28;20028;-71
2021/12/27 05:39:48;;;;;;;;;;;;;;;3.43;100.00;100039.53;5005437;28;19922;-73
2021/12/27 05:42:14;;;;;;;;;;;;;;;3.45;100.00;100041.34;5006263;28;19918;-73
2021/12/27 05:44:39;;;;;;;;;;;;;;;3.49;100.00;100042.34;5008611;28;20277;-71
2021/12/27 05:47:04;;;;;;;;;;;;;;;3.50;100.00;100042.41;5009632;28;19928;-71
2021/12/27 05:49:29;;;;;;;;;;;;;;;3.50;100.00;100042.41;5007502;28;19922;-71
2021/12/27 05:51:55;;;;;;;;;;;;;;;3.52;100.00;100046.69;5008924;28;19996;-72
2021/12/27 05:54:23;;;;;;;;;;;;;;;3.54;100.00;100048.50;5006677;28;19921;-71
2021/12/27 05:56:48;;;;;;;;;;;;;;;3.56;100.00;100041.81;5008798;28;19969;-71
2021/12/27 05:59:15;;;;;;;;;;;;;;;3.57;100.00;100043.53;5007831;28;19956;-71
2021/12/27 06:01:40;;;;;;;;;;;;;;;3.59;100.00;100043.63;5007107;28;20028;-71
2021/12/27 06:04:06;;;;;;;;;;;;;;;3.64;100.00;100053.19;5004061;28;20040;-71
2021/12/27 06:06:31;;;;;;;;;;;;;;;3.66;100.00;100058.34;5008145;28;20384;-71
2021/12/27 06:08:56;;;;;;;;;;;;;;;3.69;100.00;100054.22;5006988;28;19925;-72
2021/12/27 06:11:21;;;;;;;;;;;;;;;3.78;100.00;100060.53;5005399;28;20372;-72
2021/12/27 06:13:47;;;;;;;;;;;;;;;3.73;100.00;100045.06;5006782;28;19929;-72
2021/12/27 06:16:12;;;;;;;;;;;;;;;3.76;100.00;100050.25;5005682;28;19921;-72
2021/12/27 06:18:37;;;;;;;;;;;;;;;3.81;100.00;100050.47;5004735;28;19929;-71
2021/12/27 06:21:04;;;;;;;;;;;;;;;3.82;100.00;100047.13;5008335;28;19921;-70
2021/12/27 06:23:30;;;;;;;;;;;;;;;3.81;100.00;100043.72;5007356;28;19929;-72
2021/12/27 06:25:55;;;;;;;;;;;;;;;3.83;100.00;100039.56;5005971;28;19944;-73
2021/12/27 06:28:20;;;;;;;;;;;;;;;3.84;100.00;100043.84;5007089;28;19921;-70
2021/12/27 06:30:46;;;;;;;;;;;;;;;3.86;100.00;100046.44;5006481;28;20304;-70
2021/12/27 06:33:11;;;;;;;;;;;;;;;3.85;100.00;100047.25;5004623;28;20013;-70
2021/12/27 06:35:37;;;;;;;;;;;;;;;3.91;100.00;100044.97;5006414;28;19933;-71
2021/12/27 06:38:02;;;;;;;;;;;;;;;3.92;100.00;100037.41;5002189;28;19929;-73
2021/12/27 06:40:28;;;;;;;;;;;;;;;3.93;100.00;100035.72;5005461;28;19928;-70
2021/12/27 06:42:54;;;;;;;;;;;;;;;3.97;100.00;100042.69;5006680;28;19926;-70
2021/12/27 06:45:19;;;;;;;;;;;;;;;3.96;100.00;100039.28;5005851;28;19978;-70
2021/12/27 06:47:44;;;;;;;;;;;;;;;3.95;100.00;100032.44;5007962;28;20023;-72
2021/12/27 06:50:10;;;;;;;;;;;;;;;3.98;100.00;100031.69;5007318;28;19921;-71
2021/12/27 06:52:36;;;;;;;;;;;;;;;3.99;100.00;100026.66;5008029;28;19925;-71
2021/12/27 06:55:01;;;;;;;;;;;;;;;4.00;100.00;100024.97;5006453;28;19971;-71
2021/12/27 06:57:27;;;;;;;;;;;;;;;4.04;100.00;100020.09;5004323;28;20071;-71
2021/12/27 06:59:52;;;;;;;;;;;;;;;4.07;100.00;100016.81;5008322;28;19918;-70
2021/12/27 07:02:17;;;;;;;;;;;;;;;4.08;100.00;100021.09;5005688;28;19927;-70
2021/12/27 07:04:43;;;;;;;;;;;;;;;4.09;100.00;100021.97;5005398;28;19937;-71
2021/12/27 07:07:08;;;;;;;;;;;;;;;4.09;100.00;100016.88;5006152;28;19925;-70
2021/12/27 07:09:33;;;;;;;;;;;;;;;4.10;100.00;100016.94;5004256;28;20379;-71
2021/12/27 07:11:59;;;;;;;;;;;;;;;4.13;100.00;100009.44;5002799;28;19925;-70
2021/12/27 07:14:24;;;;;;;;;;;;;;;4.15;100.00;100012.91;5005184;28;20431;-71
2021/12/27 07:16:49;;;;;;;;;;;;;;;4.16;100.00;100007.00;5006858;28;19921;-72
2021/12/27 07:19:15;;;;;;;;;;;;;;;4.18;100.00;100012.13;5005126;28;20431;-71
2021/12/27 07:21:41;;;;;;;;;;;;;;;4.17;100.00;100006.19;5005928;28;19921;-69
2021/12/27 07:24:06;;;;;;;;;;;;;;;4.18;100.00;100007.03;5008729;28;19929;-72
2021/12/27 07:26:31;;;;;;;;;;;;;;;4.18;100.00;100007.91;4988822;28;19944;-70
2021/12/27 07:28:56;;;;;;;;;;;;;;;4.18;100.00;99987.56;5007902;28;20006;-70
2021/12/27 07:31:22;;;;;;;;;;;;;;;4.20;100.00;99990.19;5005663;28;20024;-72
2021/12/27 07:33:48;;;;;;;;;;;;;;;4.21;100.00;99999.56;5006439;28;20272;-69
2021/12/27 07:36:13;;;;;;;;;;;;;;;4.21;100.00;99999.56;5007242;28;19981;-73
2021/12/27 07:38:40;;;;;;;;;;;;;;;4.22;100.00;99991.09;5003887;28;19929;-71
2021/12/27 07:41:06;;;;;;;;;;;;;;;4.22;100.00;99993.66;5006143;28;19926;-72
2021/12/27 07:43:31;;;;;;;;;;;;;;;4.22;100.00;99997.06;5008342;28;19924;-69
2021/12/27 07:45:56;;;;;;;;;;;;;;;4.26;100.00;100003.16;4999029;28;20421;-70
2021/12/27 07:48:22;;;;;;;;;;;;;;;4.25;100.00;100002.28;5002181;28;19931;-70
2021/12/27 07:50:47;;;;;;;;;;;;;;;4.24;100.00;99995.44;5006633;28;19953;-70
2021/12/27 07:53:12;;;;;;;;;;;;;;;4.23;100.00;100005.56;5004426;28;20387;-73
2021/12/27 07:55:38;;;;;;;;;;;;;;;4.25;100.00;100001.41;5006199;28;19992;-71
2021/12/27 07:58:03;;;;;;;;;;;;;;;4.26;100.00;99993.84;5005147;28;19964;-70
2021/12/27 08:00:29;;;;;;;;;;;;;;;4.25;100.00;99999.75;5005482;28;19933;-70
2021/12/27 08:02:54;;;;;;;;;;;;;;;4.28;100.00;100004.94;5006296;28;19972;-70
2021/12/27 08:05:19;;;;;;;;;;;;;;;4.27;100.00;100012.50;5007298;28;19925;-72
2021/12/27 08:07:45;;;;;;;;;;;;;;;4.28;100.00;100007.47;5005287;28;19922;-73
2021/12/27 08:10:11;;;;;;;;;;;;;;;4.29;100.00;100006.66;5005118;28;19917;-70
2021/12/27 08:12:38;;;;;;;;;;;;;;;4.33;100.00;100004.25;5008368;28;19925;-70
2021/12/27 08:15:04;;;;;;;;;;;;;;;4.34;100.00;100009.41;5009725;28;19926;-70
2021/12/27 08:17:29;;;;;;;;;;;;;;;4.36;100.00;100009.44;5010840;28;20603;-71
2021/12/27 08:19:54;;;;;;;;;;;;;;;4.39;100.00;100007.03;5007117;28;19936;-73
2021/12/27 08:22:20;;;;;;;;;;;;;;;4.41;100.00;100016.47;5007521;28;19960;-72
2021/12/27 08:24:45;;;;;;;;;;;;;;;4.46;100.00;100022.59;5009545;28;19965;-71
2021/12/27 08:27:10;;;;;;;;;;;;;;;4.49;100.00;100020.19;5008424;28;20304;-73
2021/12/27 08:29:36;;;;;;;;;;;;;;;4.54;100.00;100015.25;5008411;28;19921;-70
2021/12/27 08:32:01;;;;;;;;;;;;;;;4.58;100.00;100017.13;5009570;28;19957;-71
2021/12/27 08:34:27;;;;;;;;;;;;;;;4.60;100.00;100025.66;5008560;28;19931;-71
2021/12/27 08:36:53;;;;;;;;;;;;;;;4.58;100.00;100014.56;5005618;28;20020;-70
2021/12/27 08:39:18;;;;;;;;;;;;;;;4.62;100.00;100013.03;5008736;28;20024;-72
2021/12/27 08:41:43;;;;;;;;;;;;;;;4.61;100.00;100011.25;5009150;28;20434;-70
2021/12/27 08:44:09;;;;;;;;;;;;;;;4.62;100.00;100013.88;5008435;28;20315;-70
2021/12/27 08:46:34;;;;;;;;;;;;;;;4.63;100.00;100009.66;5008685;28;19941;-70
2021/12/27 08:48:59;;;;;;;;;;;;;;;4.66;100.00;100004.66;5004749;28;20341;-73
2021/12/27 08:51:25;;;;;;;;;;;;;;;4.70;100.00;99997.22;5005686;28;19924;-71
2021/12/27 08:53:51;;;;;;;;;;;;;;;4.77;100.00;99993.22;5003312;28;19971;-72
2021/12/27 08:56:18;;;;;;;;;;;;;;;4.84;100.00;99990.06;5007555;28;20377;-71
2021/12/27 08:58:43;;;;;;;;;;;;;;;4.90;100.00;99984.34;5005914;28;19941;-71
2021/12/27 09:01:08;;;;;;;;;;;;;;;4.95;100.00;99985.38;5008265;28;20272;-71
2021/12/27 09:03:34;;;;;;;;;;;;;;;5.00;100.00;99978.78;5008861;28;19936;-71
2021/12/27 09:05:59;;;;;;;;;;;;;;;5.07;100.00;99960.34;5008335;28;20293;-70
2021/12/27 09:08:24;;;;;;;;;;;;;;;5.16;100.00;99962.34;5006963;28;20493;-70
2021/12/27 09:10:50;;;;;;;;;;;;;;;5.32;100.00;99957.84;5008200;28;19996;-70
2021/12/27 09:13:15;;;;;;;;;;;;;;;5.63;100.00;99956.31;5011453;28;19929;-70
2021/12/27 09:15:40;;;;;;;;;;;;;;;6.25;100.00;99949.88;5009679;28;19922;-72
2021/12/27 09:18:06;;;;;;;;;;;;;;;7.11;100.00;99957.47;5004884;28;20474;-71
2021/12/27 09:20:31;;;;;;;;;;;;;;;7.85;100.00;99955.97;5008162;28;19921;-70
2021/12/27 09:22:57;;;;;;;;;;;;;;;7.95;100.00;99963.06;5002475;28;19929;-71
2021/12/27 09:25:22;;;;;;;;;;;;;;;7.83;100.00;99974.69;5009559;28;20312;-71
2021/12/27 09:27:47;;;;;;;;;;;;;;;7.27;100.00;99980.03;5006223;28;19929;-72
2021/12/27 09:30:12;;;;;;;;;;;;;;;6.79;100.00;99974.41;5007076;28;19937;-72
2021/12/27 09:32:38;;;;;;;;;;;;;;;6.44;100.00;99981.94;5008939;28;20356;-70
2021/12/27 09:35:04;;;;;;;;;;;;;;;6.24;100.00;99985.53;5008569;28;20028;-70
2021/12/27 09:37:30;;;;;;;;;;;;;;;6.14;100.00;99992.06;5008294;28;20067;-70
2021/12/27 09:39:55;;;;;;;;;;;;;;;6.03;100.00;99993.38;5006775;28;19999;-73
2021/12/27 09:42:21;;;;;;;;;;;;;;;6.00;100.00;99983.94;5009244;28;20015;-72
2021/12/27 09:44:47;;;;;;;;;;;;;;;6.00;100.00;99972.84;5009998;28;19928;-70
2021/12/27 09:47:12;;;;;;;;;;;;;;;6.06;100.00;99975.59;5010649;28;19925;-71
2021/12/27 09:49:38;;;;;;;;;;;;;;;6.16;100.00;99973.41;5006539;28;20316;-72
2021/12/27 09:52:03;;;;;;;;;;;;;;;6.15;100.00;99969.13;5009909;28;19927;-71
2021/12/27 09:54:29;;;;;;;;;;;;;;;6.16;100.00;99962.31;4987034;28;19929;-72
2021/12/27 09:56:54;;;;;;;;;;;;;;;6.17;100.00;99952.16;5008826;28;20024;-69
2021/12/27 09:59:20;;;;;;;;;;;;;;;6.15;100.00;99955.50;5010764;28;20293;-70
2021/12/27 10:01:46;;;;;;;;;;;;;;;6.20;100.00;99950.53;5006379;28;19917;-68
2021/12/27 10:04:11;;;;;;;;;;;;;;;6.43;100.00;99960.63;5010314;28;20392;-73
2021/12/27 10:06:36;;;;;;;;;;;;;;;6.48;100.00;99955.63;5008186;28;19980;-70
2021/12/27 10:09:04;;;;;;;;;;;;;;;6.28;100.00;99946.53;5010439;28;19926;-69
2021/12/27 10:11:31;;;;;;;;;;;;;;;6.08;100.00;99948.47;5009373;28;19921;-71
2021/12/27 10:13:57;;;;;;;;;;;;;;;5.93;100.00;99940.31;5009561;28;19920;-69
2021/12/27 10:16:22;;;;;;;;;;;;;;;5.79;100.00;99925.41;5005549;28;19922;-70
2021/12/27 10:18:52;;;;;;;;;;;;;;;5.79;100.00;99917.75;5008531;28;20016;-70
2021/12/27 10:21:17;;;;;;;;;;;;;;;5.92;100.00;99906.28;5009920;28;20397;-69
2021/12/27 10:23:43;;;;;;;;;;;;;;;6.19;100.00;99901.19;5009736;28;19964;-69
2021/12/27 10:26:09;;;;;;;;;;;;;;;6.41;100.00;99902.66;5011063;28;20004;-71
2021/12/27 10:28:34;;;;;;;;;;;;;;;6.34;100.00;99898.19;5003755;28;19997;-69
2021/12/27 10:31:01;;;;;;;;;;;;;;;6.15;100.00;99912.09;5004142;28;19922;-69
2021/12/27 10:33:26;;;;;;;;;;;;;;;6.06;100.00;99911.81;5009970;28;20344;-69
2021/12/27 10:35:54;;;;;;;;;;;;;;;5.99;100.00;99930.28;5009821;28;19922;-71
2021/12/27 10:38:22;;;;;;;;;;;;;;;5.88;100.00;99930.81;5009611;28;20360;-71
2021/12/27 10:40:58;;;;;;;;;;;;;;;5.86;100.00;99922.22;5005880;28;19925;-73
2021/12/27 10:43:43;;;;;;;;;;;;;;;5.94;100.00;99916.53;5006699;28;19917;-72
2021/12/27 10:46:14;;;;;;;;;;;;;;;6.10;100.00;99913.63;5006938;28;19921;-70
2021/12/27 10:48:44;;;;;;;;;;;;;;;6.24;100.00;99920.03;5009704;28;19917;-70
2021/12/27 10:51:10;;;;;;;;;;;;;;;6.27;100.00;99917.56;5008679;28;19917;-70
2021/12/27 10:53:47;;;;;;;;;;;;;;;6.31;100.00;99915.97;5004242;28;20587;-70
2021/12/27 10:56:12;;;;;;;;;;;;;;;6.38;100.00;99916.22;5007368;28;19922;-71
2021/12/27 10:58:44;;;;;;;;;;;;;;;6.48;100.00;99911.34;5008070;28;19976;-69
2021/12/27 11:01:12;;;;;;;;;;;;;;;6.62;100.00;99915.19;5005223;28;19917;-72
2021/12/27 11:03:37;;;;;;;;;;;;;;;6.70;100.00;99909.47;5005728;28;19924;-70
2021/12/27 11:06:04;;;;;;;;;;;;;;;6.89;100.00;99904.88;5009574;28;19925;-69
2021/12/27 11:08:30;;;;;;;;;;;;;;;7.22;100.00;99892.13;5001873;28;20013;-69
2021/12/27 11:10:55;;;;;;;;;;;;;;;8.06;100.00;99896.72;4998088;28;19925;-71
2021/12/27 11:13:21;;;;;;;;;;;;;;;8.51;100.00;99893.47;5006303;28;19925;-69
2021/12/27 11:15:46;;;;;;;;;;;;;;;8.29;100.00;99904.91;5008880;28;19926;-74
2021/12/27 11:18:13;;;;;;;;;;;;;;;7.86;97.80;99893.72;5007421;28;19964;-69
2021/12/27 11:20:41;;;;;;;;;;;;;;;7.62;100.00;99895.69;4989708;28;19932;-69
2021/12/27 11:23:07;;;;;;;;;;;;;;;7.33;100.00;99900.94;5007680;28;19976;-70
2021/12/27 11:25:36;;;;;;;;;;;;;;;7.09;100.00;99907.97;5008672;28;19921;-69
2021/12/27 11:28:03;;;;;;;;;;;;;;;7.01;100.00;99900.09;5001817;28;19918;-69
2021/12/27 11:30:30;;;;;;;;;;;;;;;6.93;100.00;99888.81;5008678;28;19932;-69
2021/12/27 11:33:08;;;;;;;;;;;;;;;6.92;100.00;99884.53;5003558;28;20012;-70
2021/12/27 11:35:38;;;;;;;;;;;;;;;6.94;100.00;99883.72;5005553;28;19925;-71
2021/12/27 11:38:04;;;;;;;;;;;;;;;7.09;100.00;99877.28;5007359;28;19929;-71
2021/12/27 11:40:49;;;;;;;;;;;;;;;7.25;100.00;99870.06;5004841;28;19980;-72
2021/12/27 11:43:15;;;;;;;;;;;;;;;7.33;100.00;99860.00;5004004;28;19917;-69
2021/12/27 11:45:42;;;;;;;;;;;;;;;7.32;100.00;99870.22;5008965;28;19929;-70
2021/12/27 11:48:18;;;;;;;;;;;;;;;7.33;100.00;99862.56;5011281;28;19956;-69
2021/12/27 11:50:55;;;;;;;;;;;;;;;7.35;100.00;99863.50;5011218;28;19917;-70
2021/12/27 11:53:28;;;;;;;;;;;;;;;7.27;100.00;99852.19;5012022;28;19918;-71
2021/12/27 11:55:53;;;;;;;;;;;;;;;7.16;100.00;99851.03;5010070;28;20300;-68
2021/12/27 11:58:30;;;;;;;;;;;;;;;7.07;100.00;99843.16;5011137;28;19925;-68
2021/12/27 12:00:55;;;;;;;;;;;;;;;6.93;100.00;99846.22;5009041;28;20012;-69
2021/12/27 12:03:34;;;;;;;;;;;;;;;6.94;100.00;99835.16;5009945;28;20440;-69
2021/12/27 12:05:59;;;;;;;;;;;;;;;6.88;100.00;99829.03;5008328;28;19928;-68
2021/12/27 12:08:28;;;;;;;;;;;;;;;6.83;100.00;99828.91;5010572;28;19921;-69
2021/12/27 12:11:00;;;;;;;;;;;;;;;6.77;100.00;99823.63;5011844;28;19918;-69
2021/12/27 12:13:39;;;;;;;;;;;;;;;6.75;100.00;99820.19;5008353;28;19984;-69
2021/12/27 12:16:07;;;;;;;;;;;;;;;6.79;100.00;99821.13;5009467;28;19922;-69
2021/12/27 12:18:36;;;;;;;;;;;;;;;6.82;100.00;99816.97;5004159;28;19931;-69
2021/12/27 12:21:01;;;;;;;;;;;;;;;6.91;100.00;99832.53;5009590;28;19924;-70
2021/12/27 12:23:27;;;;;;;;;;;;;;;6.98;100.00;99824.22;5010300;28;19929;-69
2021/12/27 12:25:59;;;;;;;;;;;;;;;7.02;100.00;99827.69;5011022;28;19944;-70
2021/12/27 12:28:25;;;;;;;;;;;;;;;7.01;100.00;99832.78;5010851;28;19918;-69
2021/12/27 12:30:51;;;;;;;;;;;;;;;7.02;100.00;99821.72;5011955;28;20411;-70
2021/12/27 12:33:27;;;;;;;;;;;;;;;7.12;100.00;99811.78;5010111;28;20007;-69
2021/12/27 12:35:57;;;;;;;;;;;;;;;7.29;100.00;99808.78;5010398;28;19921;-70
2021/12/27 12:38:22;;;;;;;;;;;;;;;7.37;100.00;99800.44;5009775;28;19924;-69
2021/12/27 12:40:58;;;;;;;;;;;;;;;7.44;100.00;99798.91;5010045;28;19934;-68
2021/12/27 12:43:30;;;;;;;;;;;;;;;7.56;100.00;99794.06;5009170;28;19917;-69